KATL/ATL METAR and TAF weather

Enter ICAO airport designator
Station Type Date Time Source
KATL METAR 2022/01/19 18:52 UTC NOAA

KATL 191852Z 20008G15KT 10SM FEW150 SCT200 BKN250 16/M03 A3015 RMK AO2 SLP212 T01561028


Station Type Date Time Source
KATL Decoded METAR 2022/01/19 18:52 UTC NOAA

HARTSFIELD-JACKSON ATLANTA, GA, United States (KATL) 33-39N 84-26W
Jan 19, 2022 - 01:52 PM EST / 2022.01.19 1852 UTC
Wind: from the SSW (200 degrees) at 9 MPH (8 KT) gusting to 17 MPH (15 KT):0
Visibility: 10 mile(s):0
Sky conditions: mostly cloudy
Temperature: 60.1 F (15.6 C)
Dew Point: 27.0 F (-2.8 C)
Relative Humidity: 28%
Pressure (altimeter): 30.15 in. Hg (1020 hPa)
ob: KATL 191852Z 20008G15KT 10SM FEW150 SCT200 BKN250 16/M03 A3015 RMK AO2 SLP212 T01561028
cycle: 19

Station Type Date Time Source
KATL TAF 2022/01/19 20:33 UTC NOAA

TAF
AMD KATL 191931Z 1920/2024 20010G15KT P6SM FEW150 FEW250
FM200000 19007KT P6SM SCT030 SCT120 SCT250
FM200800 21007KT 5SM -SHRA BR BKN012 OVC030
FM201200 25005KT 3SM SHRA BR SCT003 BKN005 OVC007
FM201700 32010KT 5SM BR VCSH SCT005 OVC008
FM202100 33010KT P6SM VCSH SCT008 OVC012

Example: see airport list